sensor_id;sensor_type;location;lat;lon;timestamp;P1;durP1;ratioP1;P2;durP2;ratioP2
19329;SDS011;9799;48.214;16.388;2023-07-22T00:02:14;4.18;;;3.53;;
19329;SDS011;9799;48.214;16.388;2023-07-22T00:05:35;3.58;;;3.03;;
19329;SDS011;9799;48.214;16.388;2023-07-22T00:08:56;3.83;;;2.80;;
19329;SDS011;9799;48.214;16.388;2023-07-22T00:12:17;2.92;;;2.60;;
19329;SDS011;9799;48.214;16.388;2023-07-22T00:15:39;3.50;;;3.20;;
19329;SDS011;9799;48.214;16.388;2023-07-22T00:19:00;9.35;;;3.40;;
19329;SDS011;9799;48.214;16.388;2023-07-22T00:22:22;4.63;;;3.50;;
19329;SDS011;9799;48.214;16.388;2023-07-22T00:25:45;6.43;;;3.90;;
19329;SDS011;9799;48.214;16.388;2023-07-22T00:29:07;6.35;;;3.30;;
19329;SDS011;9799;48.214;16.388;2023-07-22T00:32:29;4.20;;;3.10;;
19329;SDS011;9799;48.214;16.388;2023-07-22T00:35:50;11.38;;;3.85;;
19329;SDS011;9799;48.214;16.388;2023-07-22T00:39:11;3.22;;;2.92;;
19329;SDS011;9799;48.214;16.388;2023-07-22T00:42:34;4.55;;;2.72;;
19329;SDS011;9799;48.214;16.388;2023-07-22T00:45:55;4.18;;;2.75;;
19329;SDS011;9799;48.214;16.388;2023-07-22T00:49:18;5.50;;;3.25;;
19329;SDS011;9799;48.214;16.388;2023-07-22T00:52:39;3.47;;;2.53;;
19329;SDS011;9799;48.214;16.388;2023-07-22T00:56:02;3.97;;;3.13;;
19329;SDS011;9799;48.214;16.388;2023-07-22T00:59:23;3.53;;;3.05;;
19329;SDS011;9799;48.214;16.388;2023-07-22T01:02:45;3.75;;;3.35;;
19329;SDS011;9799;48.214;16.388;2023-07-22T01:06:07;5.72;;;3.05;;
19329;SDS011;9799;48.214;16.388;2023-07-22T01:09:33;4.20;;;3.30;;
19329;SDS011;9799;48.214;16.388;2023-07-22T01:12:55;5.75;;;3.80;;
19329;SDS011;9799;48.214;16.388;2023-07-22T01:16:16;4.90;;;3.40;;
19329;SDS011;9799;48.214;16.388;2023-07-22T01:19:43;4.18;;;3.20;;
19329;SDS011;9799;48.214;16.388;2023-07-22T01:23:24;7.40;;;3.33;;
19329;SDS011;9799;48.214;16.388;2023-07-22T01:26:55;4.38;;;3.20;;
19329;SDS011;9799;48.214;16.388;2023-07-22T01:30:46;4.25;;;3.15;;
19329;SDS011;9799;48.214;16.388;2023-07-22T01:34:18;5.25;;;3.28;;
19329;SDS011;9799;48.214;16.388;2023-07-22T01:37:48;3.00;;;2.70;;
19329;SDS011;9799;48.214;16.388;2023-07-22T01:41:19;6.18;;;3.38;;
19329;SDS011;9799;48.214;16.388;2023-07-22T01:44:55;4.43;;;2.42;;
19329;SDS011;9799;48.214;16.388;2023-07-22T01:48:27;3.85;;;3.40;;
19329;SDS011;9799;48.214;16.388;2023-07-22T01:51:48;3.42;;;3.13;;
19329;SDS011;9799;48.214;16.388;2023-07-22T01:55:12;3.60;;;3.30;;
19329;SDS011;9799;48.214;16.388;2023-07-22T01:58:54;4.07;;;3.35;;
19329;SDS011;9799;48.214;16.388;2023-07-22T02:02:36;3.25;;;2.95;;
19329;SDS011;9799;48.214;16.388;2023-07-22T02:06:01;4.50;;;3.63;;
19329;SDS011;9799;48.214;16.388;2023-07-22T02:09:22;4.75;;;3.65;;
19329;SDS011;9799;48.214;16.388;2023-07-22T02:12:43;4.95;;;3.50;;
19329;SDS011;9799;48.214;16.388;2023-07-22T02:16:06;3.85;;;3.40;;
19329;SDS011;9799;48.214;16.388;2023-07-22T02:19:30;5.13;;;3.58;;
19329;SDS011;9799;48.214;16.388;2023-07-22T02:22:51;3.97;;;3.58;;
19329;SDS011;9799;48.214;16.388;2023-07-22T02:26:13;3.90;;;3.60;;
19329;SDS011;9799;48.214;16.388;2023-07-22T02:29:34;4.15;;;3.75;;
19329;SDS011;9799;48.214;16.388;2023-07-22T02:32:57;6.28;;;4.35;;
19329;SDS011;9799;48.214;16.388;2023-07-22T02:36:18;4.95;;;3.60;;
19329;SDS011;9799;48.214;16.388;2023-07-22T02:39:39;4.93;;;3.90;;
19329;SDS011;9799;48.214;16.388;2023-07-22T02:43:00;6.40;;;3.95;;
19329;SDS011;9799;48.214;16.388;2023-07-22T02:46:22;5.43;;;4.30;;
19329;SDS011;9799;48.214;16.388;2023-07-22T02:49:45;4.70;;;3.85;;
19329;SDS011;9799;48.214;16.388;2023-07-22T02:53:07;6.75;;;3.70;;
19329;SDS011;9799;48.214;16.388;2023-07-22T02:56:28;4.78;;;4.38;;
19329;SDS011;9799;48.214;16.388;2023-07-22T02:59:49;4.30;;;3.70;;
19329;SDS011;9799;48.214;16.388;2023-07-22T03:03:10;7.35;;;3.80;;
19329;SDS011;9799;48.214;16.388;2023-07-22T03:06:32;7.30;;;3.75;;
19329;SDS011;9799;48.214;16.388;2023-07-22T03:09:53;4.30;;;3.78;;
19329;SDS011;9799;48.214;16.388;2023-07-22T03:13:15;4.68;;;3.85;;
19329;SDS011;9799;48.214;16.388;2023-07-22T03:16:36;5.07;;;3.75;;
19329;SDS011;9799;48.214;16.388;2023-07-22T03:19:57;4.35;;;3.95;;
19329;SDS011;9799;48.214;16.388;2023-07-22T03:23:20;4.85;;;4.00;;
19329;SDS011;9799;48.214;16.388;2023-07-22T03:26:41;4.72;;;3.95;;
19329;SDS011;9799;48.214;16.388;2023-07-22T03:30:02;4.70;;;4.20;;
19329;SDS011;9799;48.214;16.388;2023-07-22T03:33:26;4.28;;;3.88;;
19329;SDS011;9799;48.214;16.388;2023-07-22T03:36:47;5.43;;;3.92;;
19329;SDS011;9799;48.214;16.388;2023-07-22T03:40:10;4.90;;;4.13;;
19329;SDS011;9799;48.214;16.388;2023-07-22T03:43:38;4.38;;;3.88;;
19329;SDS011;9799;48.214;16.388;2023-07-22T03:46:59;4.20;;;3.80;;
19329;SDS011;9799;48.214;16.388;2023-07-22T03:50:20;4.10;;;3.20;;
19329;SDS011;9799;48.214;16.388;2023-07-22T03:53:41;7.78;;;3.78;;
19329;SDS011;9799;48.214;16.388;2023-07-22T03:57:04;8.95;;;5.18;;
19329;SDS011;9799;48.214;16.388;2023-07-22T04:00:26;4.80;;;3.33;;
19329;SDS011;9799;48.214;16.388;2023-07-22T04:03:47;4.22;;;3.35;;
19329;SDS011;9799;48.214;16.388;2023-07-22T04:07:08;5.72;;;3.53;;
19329;SDS011;9799;48.214;16.388;2023-07-22T04:10:29;3.75;;;3.45;;
19329;SDS011;9799;48.214;16.388;2023-07-22T04:13:52;5.68;;;3.80;;
19329;SDS011;9799;48.214;16.388;2023-07-22T04:17:13;5.60;;;3.42;;
19329;SDS011;9799;48.214;16.388;2023-07-22T04:20:34;4.40;;;3.30;;
19329;SDS011;9799;48.214;16.388;2023-07-22T04:23:56;4.15;;;3.75;;
19329;SDS011;9799;48.214;16.388;2023-07-22T04:27:17;3.38;;;3.08;;
19329;SDS011;9799;48.214;16.388;2023-07-22T04:30:40;5.07;;;3.83;;
19329;SDS011;9799;48.214;16.388;2023-07-22T04:34:01;3.45;;;2.97;;
19329;SDS011;9799;48.214;16.388;2023-07-22T04:37:23;5.00;;;3.22;;
19329;SDS011;9799;48.214;16.388;2023-07-22T04:40:44;3.80;;;3.30;;
19329;SDS011;9799;48.214;16.388;2023-07-22T04:44:05;4.72;;;2.83;;
19329;SDS011;9799;48.214;16.388;2023-07-22T04:47:28;3.10;;;2.88;;
19329;SDS011;9799;48.214;16.388;2023-07-22T04:50:49;6.20;;;3.47;;
19329;SDS011;9799;48.214;16.388;2023-07-22T04:54:11;3.40;;;2.90;;
19329;SDS011;9799;48.214;16.388;2023-07-22T04:57:32;10.45;;;3.25;;
19329;SDS011;9799;48.214;16.388;2023-07-22T05:00:53;3.08;;;2.72;;
19329;SDS011;9799;48.214;16.388;2023-07-22T05:04:16;3.60;;;3.05;;
19329;SDS011;9799;48.214;16.388;2023-07-22T05:07:37;3.55;;;3.25;;
19329;SDS011;9799;48.214;16.388;2023-07-22T05:10:58;5.78;;;3.42;;
19329;SDS011;9799;48.214;16.388;2023-07-22T05:14:19;3.40;;;3.05;;
19329;SDS011;9799;48.214;16.388;2023-07-22T05:17:41;3.65;;;3.28;;
19329;SDS011;9799;48.214;16.388;2023-07-22T05:21:03;6.43;;;2.67;;
19329;SDS011;9799;48.214;16.388;2023-07-22T05:24:24;4.10;;;3.20;;
19329;SDS011;9799;48.214;16.388;2023-07-22T05:27:45;3.75;;;3.35;;
19329;SDS011;9799;48.214;16.388;2023-07-22T05:31:07;4.40;;;3.60;;
19329;SDS011;9799;48.214;16.388;2023-07-22T05:34:28;6.55;;;3.53;;
19329;SDS011;9799;48.214;16.388;2023-07-22T05:37:50;4.03;;;3.63;;
19329;SDS011;9799;48.214;16.388;2023-07-22T05:41:11;4.88;;;3.70;;
19329;SDS011;9799;48.214;16.388;2023-07-22T05:44:32;6.88;;;3.17;;
19329;SDS011;9799;48.214;16.388;2023-07-22T05:47:54;4.25;;;3.85;;
19329;SDS011;9799;48.214;16.388;2023-07-22T05:51:15;4.25;;;3.85;;
19329;SDS011;9799;48.214;16.388;2023-07-22T05:54:38;4.10;;;3.72;;
19329;SDS011;9799;48.214;16.388;2023-07-22T05:58:00;4.20;;;3.67;;
19329;SDS011;9799;48.214;16.388;2023-07-22T06:01:24;5.05;;;3.60;;
19329;SDS011;9799;48.214;16.388;2023-07-22T06:04:46;4.32;;;3.30;;
19329;SDS011;9799;48.214;16.388;2023-07-22T06:08:07;3.80;;;3.40;;
19329;SDS011;9799;48.214;16.388;2023-07-22T06:11:30;4.05;;;3.65;;
19329;SDS011;9799;48.214;16.388;2023-07-22T06:14:51;4.38;;;3.20;;
19329;SDS011;9799;48.214;16.388;2023-07-22T06:18:13;5.38;;;3.50;;
19329;SDS011;9799;48.214;16.388;2023-07-22T06:21:34;3.38;;;2.90;;
19329;SDS011;9799;48.214;16.388;2023-07-22T06:24:55;5.95;;;3.47;;
19329;SDS011;9799;48.214;16.388;2023-07-22T06:28:17;5.13;;;3.40;;
19329;SDS011;9799;48.214;16.388;2023-07-22T06:31:38;3.42;;;3.05;;
19329;SDS011;9799;48.214;16.388;2023-07-22T06:35:00;3.83;;;3.38;;
19329;SDS011;9799;48.214;16.388;2023-07-22T06:38:22;3.83;;;3.40;;
19329;SDS011;9799;48.214;16.388;2023-07-22T06:41:43;3.30;;;3.00;;
19329;SDS011;9799;48.214;16.388;2023-07-22T06:45:06;7.38;;;3.72;;
19329;SDS011;9799;48.214;16.388;2023-07-22T06:48:28;4.38;;;3.75;;
19329;SDS011;9799;48.214;16.388;2023-07-22T06:51:49;3.45;;;3.15;;
19329;SDS011;9799;48.214;16.388;2023-07-22T06:55:11;3.05;;;2.75;;
19329;SDS011;9799;48.214;16.388;2023-07-22T06:58:32;3.90;;;3.60;;
19329;SDS011;9799;48.214;16.388;2023-07-22T07:01:54;4.03;;;3.08;;
19329;SDS011;9799;48.214;16.388;2023-07-22T07:05:16;3.60;;;3.13;;
19329;SDS011;9799;48.214;16.388;2023-07-22T07:08:37;5.32;;;3.17;;
19329;SDS011;9799;48.214;16.388;2023-07-22T07:11:59;3.40;;;3.10;;
19329;SDS011;9799;48.214;16.388;2023-07-22T07:15:20;13.55;;;2.85;;
19329;SDS011;9799;48.214;16.388;2023-07-22T07:18:42;4.22;;;2.78;;
19329;SDS011;9799;48.214;16.388;2023-07-22T07:22:04;3.75;;;3.45;;
19329;SDS011;9799;48.214;16.388;2023-07-22T07:25:25;3.97;;;2.80;;
19329;SDS011;9799;48.214;16.388;2023-07-22T07:28:47;3.67;;;3.08;;
19329;SDS011;9799;48.214;16.388;2023-07-22T07:32:09;3.50;;;2.65;;
19329;SDS011;9799;48.214;16.388;2023-07-22T07:35:31;4.07;;;2.85;;
19329;SDS011;9799;48.214;16.388;2023-07-22T07:38:52;3.25;;;2.95;;
19329;SDS011;9799;48.214;16.388;2023-07-22T07:42:14;4.05;;;3.15;;
19329;SDS011;9799;48.214;16.388;2023-07-22T07:45:38;2.50;;;2.30;;
19329;SDS011;9799;48.214;16.388;2023-07-22T07:49:00;3.22;;;2.85;;
19329;SDS011;9799;48.214;16.388;2023-07-22T07:52:23;3.58;;;2.75;;
19329;SDS011;9799;48.214;16.388;2023-07-22T07:55:44;3.22;;;2.97;;
19329;SDS011;9799;48.214;16.388;2023-07-22T07:59:05;3.65;;;3.10;;
19329;SDS011;9799;48.214;16.388;2023-07-22T08:02:28;6.40;;;5.35;;
19329;SDS011;9799;48.214;16.388;2023-07-22T08:05:49;3.08;;;2.85;;
19329;SDS011;9799;48.214;16.388;2023-07-22T08:09:12;3.40;;;2.97;;
19329;SDS011;9799;48.214;16.388;2023-07-22T08:12:38;3.42;;;2.70;;
19329;SDS011;9799;48.214;16.388;2023-07-22T08:16:00;3.90;;;3.17;;
19329;SDS011;9799;48.214;16.388;2023-07-22T08:19:22;3.13;;;2.80;;
19329;SDS011;9799;48.214;16.388;2023-07-22T08:22:43;3.75;;;3.15;;
19329;SDS011;9799;48.214;16.388;2023-07-22T08:26:06;3.83;;;2.85;;
19329;SDS011;9799;48.214;16.388;2023-07-22T08:29:27;4.82;;;3.03;;
19329;SDS011;9799;48.214;16.388;2023-07-22T08:32:48;2.97;;;2.67;;
19329;SDS011;9799;48.214;16.388;2023-07-22T08:36:09;2.72;;;2.53;;
19329;SDS011;9799;48.214;16.388;2023-07-22T08:39:31;3.42;;;2.67;;
19329;SDS011;9799;48.214;16.388;2023-07-22T08:42:54;4.07;;;2.88;;
19329;SDS011;9799;48.214;16.388;2023-07-22T08:46:16;2.63;;;2.42;;
19329;SDS011;9799;48.214;16.388;2023-07-22T08:49:41;3.67;;;2.35;;
19329;SDS011;9799;48.214;16.388;2023-07-22T08:53:06;2.90;;;2.60;;
19329;SDS011;9799;48.214;16.388;2023-07-22T08:56:28;2.72;;;2.47;;
19329;SDS011;9799;48.214;16.388;2023-07-22T08:59:51;2.88;;;2.58;;
19329;SDS011;9799;48.214;16.388;2023-07-22T09:03:12;5.10;;;3.10;;
19329;SDS011;9799;48.214;16.388;2023-07-22T09:06:34;5.63;;;2.95;;
19329;SDS011;9799;48.214;16.388;2023-07-22T09:09:55;3.13;;;2.80;;
19329;SDS011;9799;48.214;16.388;2023-07-22T09:13:18;3.20;;;2.67;;
19329;SDS011;9799;48.214;16.388;2023-07-22T09:16:41;2.72;;;2.47;;
19329;SDS011;9799;48.214;16.388;2023-07-22T09:20:04;2.80;;;2.38;;
19329;SDS011;9799;48.214;16.388;2023-07-22T09:23:32;3.28;;;2.20;;
19329;SDS011;9799;48.214;16.388;2023-07-22T09:26:54;2.90;;;2.63;;
19329;SDS011;9799;48.214;16.388;2023-07-22T09:30:22;2.42;;;2.22;;
19329;SDS011;9799;48.214;16.388;2023-07-22T09:33:46;8.05;;;2.72;;
19329;SDS011;9799;48.214;16.388;2023-07-22T09:37:08;2.97;;;2.50;;
19329;SDS011;9799;48.214;16.388;2023-07-22T09:40:29;3.03;;;2.20;;
19329;SDS011;9799;48.214;16.388;2023-07-22T09:43:50;2.50;;;2.30;;
19329;SDS011;9799;48.214;16.388;2023-07-22T09:47:11;3.00;;;2.60;;
19329;SDS011;9799;48.214;16.388;2023-07-22T09:50:34;2.70;;;2.20;;
19329;SDS011;9799;48.214;16.388;2023-07-22T09:53:59;2.63;;;2.42;;
19329;SDS011;9799;48.214;16.388;2023-07-22T09:57:21;4.25;;;2.47;;
19329;SDS011;9799;48.214;16.388;2023-07-22T10:00:46;4.10;;;2.22;;
19329;SDS011;9799;48.214;16.388;2023-07-22T10:04:08;2.72;;;2.53;;
19329;SDS011;9799;48.214;16.388;2023-07-22T10:07:33;4.03;;;3.50;;
19329;SDS011;9799;48.214;16.388;2023-07-22T10:10:57;3.03;;;2.20;;
19329;SDS011;9799;48.214;16.388;2023-07-22T10:14:20;2.40;;;2.20;;
19329;SDS011;9799;48.214;16.388;2023-07-22T10:17:42;6.22;;;2.53;;
19329;SDS011;9799;48.214;16.388;2023-07-22T10:21:04;3.20;;;2.55;;
19329;SDS011;9799;48.214;16.388;2023-07-22T10:24:27;3.10;;;2.45;;
19329;SDS011;9799;48.214;16.388;2023-07-22T10:27:49;3.53;;;2.63;;
19329;SDS011;9799;48.214;16.388;2023-07-22T10:31:12;2.85;;;2.53;;
19329;SDS011;9799;48.214;16.388;2023-07-22T10:34:37;4.07;;;3.65;;
19329;SDS011;9799;48.214;16.388;2023-07-22T10:38:06;3.70;;;3.25;;
19329;SDS011;9799;48.214;16.388;2023-07-22T10:41:29;7.00;;;2.40;;
19329;SDS011;9799;48.214;16.388;2023-07-22T10:44:50;4.53;;;2.30;;
19329;SDS011;9799;48.214;16.388;2023-07-22T10:48:12;2.22;;;2.03;;
19329;SDS011;9799;48.214;16.388;2023-07-22T10:51:35;2.90;;;2.53;;
19329;SDS011;9799;48.214;16.388;2023-07-22T10:54:56;4.22;;;2.55;;
19329;SDS011;9799;48.214;16.388;2023-07-22T10:58:20;2.45;;;2.20;;
19329;SDS011;9799;48.214;16.388;2023-07-22T11:01:44;2.78;;;2.30;;
19329;SDS011;9799;48.214;16.388;2023-07-22T11:05:05;2.67;;;2.40;;
19329;SDS011;9799;48.214;16.388;2023-07-22T11:08:36;3.15;;;2.35;;
19329;SDS011;9799;48.214;16.388;2023-07-22T11:11:58;2.90;;;2.53;;
19329;SDS011;9799;48.214;16.388;2023-07-22T11:15:21;2.53;;;2.33;;
19329;SDS011;9799;48.214;16.388;2023-07-22T11:18:43;3.88;;;3.05;;
19329;SDS011;9799;48.214;16.388;2023-07-22T11:22:04;4.13;;;2.55;;
19329;SDS011;9799;48.214;16.388;2023-07-22T11:25:25;4.68;;;3.92;;
19329;SDS011;9799;48.214;16.388;2023-07-22T11:28:47;3.55;;;3.25;;
19329;SDS011;9799;48.214;16.388;2023-07-22T11:32:15;6.28;;;5.68;;
19329;SDS011;9799;48.214;16.388;2023-07-22T11:35:37;3.83;;;3.10;;
19329;SDS011;9799;48.214;16.388;2023-07-22T11:39:02;3.00;;;2.72;;
19329;SDS011;9799;48.214;16.388;2023-07-22T11:42:25;2.85;;;2.42;;
19329;SDS011;9799;48.214;16.388;2023-07-22T11:45:46;2.65;;;2.45;;
19329;SDS011;9799;48.214;16.388;2023-07-22T11:49:08;3.03;;;2.65;;
19329;SDS011;9799;48.214;16.388;2023-07-22T11:52:30;4.65;;;2.78;;
19329;SDS011;9799;48.214;16.388;2023-07-22T11:55:51;3.20;;;2.90;;
19329;SDS011;9799;48.214;16.388;2023-07-22T11:59:12;3.17;;;2.90;;
19329;SDS011;9799;48.214;16.388;2023-07-22T12:02:35;3.00;;;2.63;;
19329;SDS011;9799;48.214;16.388;2023-07-22T12:06:01;4.80;;;2.88;;
19329;SDS011;9799;48.214;16.388;2023-07-22T12:09:23;2.67;;;2.45;;
19329;SDS011;9799;48.214;16.388;2023-07-22T12:12:45;4.15;;;3.53;;
19329;SDS011;9799;48.214;16.388;2023-07-22T12:16:08;2.88;;;2.60;;
19329;SDS011;9799;48.214;16.388;2023-07-22T12:19:29;3.60;;;3.28;;
19329;SDS011;9799;48.214;16.388;2023-07-22T12:22:52;2.95;;;2.65;;
19329;SDS011;9799;48.214;16.388;2023-07-22T12:26:14;3.80;;;2.55;;
19329;SDS011;9799;48.214;16.388;2023-07-22T12:29:35;3.38;;;2.78;;
19329;SDS011;9799;48.214;16.388;2023-07-22T12:32:56;2.80;;;2.60;;
19329;SDS011;9799;48.214;16.388;2023-07-22T12:36:17;3.70;;;3.15;;
19329;SDS011;9799;48.214;16.388;2023-07-22T12:39:40;3.17;;;2.88;;
19329;SDS011;9799;48.214;16.388;2023-07-22T12:43:01;4.07;;;3.67;;
19329;SDS011;9799;48.214;16.388;2023-07-22T12:46:22;3.13;;;2.80;;
19329;SDS011;9799;48.214;16.388;2023-07-22T12:49:43;3.00;;;2.75;;
19329;SDS011;9799;48.214;16.388;2023-07-22T12:53:05;3.20;;;2.83;;
19329;SDS011;9799;48.214;16.388;2023-07-22T12:56:28;3.38;;;3.08;;
19329;SDS011;9799;48.214;16.388;2023-07-22T12:59:49;3.03;;;2.75;;
19329;SDS011;9799;48.214;16.388;2023-07-22T13:03:10;3.05;;;2.75;;
19329;SDS011;9799;48.214;16.388;2023-07-22T13:06:31;3.20;;;2.72;;
19329;SDS011;9799;48.214;16.388;2023-07-22T13:09:52;2.80;;;2.60;;
19329;SDS011;9799;48.214;16.388;2023-07-22T13:13:17;3.65;;;2.90;;
19329;SDS011;9799;48.214;16.388;2023-07-22T13:16:38;3.83;;;2.97;;
19329;SDS011;9799;48.214;16.388;2023-07-22T13:19:59;3.55;;;3.08;;
19329;SDS011;9799;48.214;16.388;2023-07-22T13:23:20;3.83;;;2.63;;
19329;SDS011;9799;48.214;16.388;2023-07-22T13:26:41;3.15;;;2.85;;
19329;SDS011;9799;48.214;16.388;2023-07-22T13:30:06;2.83;;;2.58;;
19329;SDS011;9799;48.214;16.388;2023-07-22T13:33:27;2.95;;;2.75;;
19329;SDS011;9799;48.214;16.388;2023-07-22T13:36:49;2.55;;;2.35;;
19329;SDS011;9799;48.214;16.388;2023-07-22T13:40:10;2.20;;;2.00;;
19329;SDS011;9799;48.214;16.388;2023-07-22T13:43:31;2.85;;;2.58;;
19329;SDS011;9799;48.214;16.388;2023-07-22T13:46:54;3.53;;;2.53;;
19329;SDS011;9799;48.214;16.388;2023-07-22T13:50:15;2.70;;;2.47;;
19329;SDS011;9799;48.214;16.388;2023-07-22T13:53:36;3.03;;;2.28;;
19329;SDS011;9799;48.214;16.388;2023-07-22T13:56:58;2.78;;;2.55;;
19329;SDS011;9799;48.214;16.388;2023-07-22T14:00:19;5.15;;;2.83;;
19329;SDS011;9799;48.214;16.388;2023-07-22T14:03:41;3.13;;;2.83;;
19329;SDS011;9799;48.214;16.388;2023-07-22T14:07:02;3.05;;;2.75;;
19329;SDS011;9799;48.214;16.388;2023-07-22T14:10:24;3.05;;;2.58;;
19329;SDS011;9799;48.214;16.388;2023-07-22T14:13:45;2.83;;;2.47;;
19329;SDS011;9799;48.214;16.388;2023-07-22T14:17:07;3.20;;;2.88;;
19329;SDS011;9799;48.214;16.388;2023-07-22T14:20:33;3.15;;;2.85;;
19329;SDS011;9799;48.214;16.388;2023-07-22T14:23:54;3.30;;;3.00;;
19329;SDS011;9799;48.214;16.388;2023-07-22T14:27:15;2.40;;;2.20;;
19329;SDS011;9799;48.214;16.388;2023-07-22T14:30:36;5.47;;;2.20;;
19329;SDS011;9799;48.214;16.388;2023-07-22T14:33:57;2.70;;;2.50;;
19329;SDS011;9799;48.214;16.388;2023-07-22T14:37:20;4.90;;;2.70;;
19329;SDS011;9799;48.214;16.388;2023-07-22T14:40:42;3.05;;;2.58;;
19329;SDS011;9799;48.214;16.388;2023-07-22T14:44:04;3.92;;;2.63;;
19329;SDS011;9799;48.214;16.388;2023-07-22T14:47:25;2.88;;;2.58;;
19329;SDS011;9799;48.214;16.388;2023-07-22T14:50:48;2.35;;;2.15;;
19329;SDS011;9799;48.214;16.388;2023-07-22T14:54:10;2.75;;;2.55;;
19329;SDS011;9799;48.214;16.388;2023-07-22T14:57:32;3.47;;;3.10;;
19329;SDS011;9799;48.214;16.388;2023-07-22T15:00:53;3.38;;;2.88;;
19329;SDS011;9799;48.214;16.388;2023-07-22T15:04:14;3.83;;;3.22;;
19329;SDS011;9799;48.214;16.388;2023-07-22T15:07:35;3.00;;;2.58;;
19329;SDS011;9799;48.214;16.388;2023-07-22T15:10:58;3.38;;;3.08;;
19329;SDS011;9799;48.214;16.388;2023-07-22T15:14:19;4.13;;;3.30;;
19329;SDS011;9799;48.214;16.388;2023-07-22T15:17:41;3.05;;;2.75;;
19329;SDS011;9799;48.214;16.388;2023-07-22T15:21:02;5.65;;;5.00;;
19329;SDS011;9799;48.214;16.388;2023-07-22T15:24:23;3.20;;;2.72;;
19329;SDS011;9799;48.214;16.388;2023-07-22T15:27:46;4.32;;;3.22;;
19329;SDS011;9799;48.214;16.388;2023-07-22T15:31:07;4.18;;;3.70;;
19329;SDS011;9799;48.214;16.388;2023-07-22T15:34:28;3.17;;;2.88;;
19329;SDS011;9799;48.214;16.388;2023-07-22T15:37:49;4.75;;;4.25;;
19329;SDS011;9799;48.214;16.388;2023-07-22T15:41:12;3.63;;;3.13;;
19329;SDS011;9799;48.214;16.388;2023-07-22T15:44:35;3.92;;;3.00;;
19329;SDS011;9799;48.214;16.388;2023-07-22T15:47:56;4.97;;;3.60;;
19329;SDS011;9799;48.214;16.388;2023-07-22T15:51:19;3.65;;;2.88;;
19329;SDS011;9799;48.214;16.388;2023-07-22T15:54:40;4.25;;;3.40;;
19329;SDS011;9799;48.214;16.388;2023-07-22T15:58:01;3.63;;;3.33;;
19329;SDS011;9799;48.214;16.388;2023-07-22T16:01:24;6.65;;;3.50;;
19329;SDS011;9799;48.214;16.388;2023-07-22T16:04:45;3.97;;;3.17;;
19329;SDS011;9799;48.214;16.388;2023-07-22T16:08:06;5.72;;;3.30;;
19329;SDS011;9799;48.214;16.388;2023-07-22T16:11:27;5.80;;;3.30;;
19329;SDS011;9799;48.214;16.388;2023-07-22T16:14:48;5.05;;;3.38;;
19329;SDS011;9799;48.214;16.388;2023-07-22T16:18:11;3.78;;;3.17;;
19329;SDS011;9799;48.214;16.388;2023-07-22T16:21:32;4.15;;;3.45;;
19329;SDS011;9799;48.214;16.388;2023-07-22T16:24:54;3.28;;;2.97;;
19329;SDS011;9799;48.214;16.388;2023-07-22T16:28:15;3.88;;;3.38;;
19329;SDS011;9799;48.214;16.388;2023-07-22T16:31:36;3.75;;;3.13;;
19329;SDS011;9799;48.214;16.388;2023-07-22T16:34:58;4.47;;;3.03;;
19329;SDS011;9799;48.214;16.388;2023-07-22T16:38:20;3.72;;;3.17;;
19329;SDS011;9799;48.214;16.388;2023-07-22T16:41:41;4.38;;;3.28;;
19329;SDS011;9799;48.214;16.388;2023-07-22T16:45:02;4.20;;;3.45;;
19329;SDS011;9799;48.214;16.388;2023-07-22T16:48:24;3.60;;;2.97;;
19329;SDS011;9799;48.214;16.388;2023-07-22T16:51:47;4.63;;;3.40;;
19329;SDS011;9799;48.214;16.388;2023-07-22T16:55:08;3.35;;;3.05;;
19329;SDS011;9799;48.214;16.388;2023-07-22T16:58:30;4.00;;;3.40;;
19329;SDS011;9799;48.214;16.388;2023-07-22T17:01:51;3.83;;;2.97;;
19329;SDS011;9799;48.214;16.388;2023-07-22T17:05:13;3.45;;;3.15;;
19329;SDS011;9799;48.214;16.388;2023-07-22T17:08:36;3.40;;;3.10;;
19329;SDS011;9799;48.214;16.388;2023-07-22T17:11:57;4.53;;;2.75;;
19329;SDS011;9799;48.214;16.388;2023-07-22T17:15:18;6.55;;;3.13;;
19329;SDS011;9799;48.214;16.388;2023-07-22T17:18:40;4.20;;;3.20;;
19329;SDS011;9799;48.214;16.388;2023-07-22T17:22:01;5.20;;;2.95;;
19329;SDS011;9799;48.214;16.388;2023-07-22T17:25:24;3.90;;;3.50;;
19329;SDS011;9799;48.214;16.388;2023-07-22T17:28:46;6.00;;;3.38;;
19329;SDS011;9799;48.214;16.388;2023-07-22T17:32:07;4.45;;;3.72;;
19329;SDS011;9799;48.214;16.388;2023-07-22T17:35:29;7.47;;;3.95;;
19329;SDS011;9799;48.214;16.388;2023-07-22T17:38:51;4.90;;;3.70;;
19329;SDS011;9799;48.214;16.388;2023-07-22T17:42:14;3.70;;;3.28;;
19329;SDS011;9799;48.214;16.388;2023-07-22T17:45:38;3.90;;;3.60;;
19329;SDS011;9799;48.214;16.388;2023-07-22T17:49:00;4.30;;;3.67;;
19329;SDS011;9799;48.214;16.388;2023-07-22T17:52:22;3.85;;;3.42;;
19329;SDS011;9799;48.214;16.388;2023-07-22T17:55:44;4.22;;;3.72;;
19329;SDS011;9799;48.214;16.388;2023-07-22T17:59:10;4.45;;;3.78;;
19329;SDS011;9799;48.214;16.388;2023-07-22T18:02:32;3.63;;;3.20;;
19329;SDS011;9799;48.214;16.388;2023-07-22T18:05:58;6.03;;;4.47;;
19329;SDS011;9799;48.214;16.388;2023-07-22T18:09:20;3.90;;;3.50;;
19329;SDS011;9799;48.214;16.388;2023-07-22T18:12:41;4.00;;;3.28;;
19329;SDS011;9799;48.214;16.388;2023-07-22T18:16:04;3.88;;;3.47;;
19329;SDS011;9799;48.214;16.388;2023-07-22T18:19:26;6.50;;;3.47;;
19329;SDS011;9799;48.214;16.388;2023-07-22T18:22:48;5.88;;;3.92;;
19329;SDS011;9799;48.214;16.388;2023-07-22T18:26:10;4.35;;;3.35;;
19329;SDS011;9799;48.214;16.388;2023-07-22T18:29:31;4.18;;;3.78;;
19329;SDS011;9799;48.214;16.388;2023-07-22T18:32:55;3.42;;;3.13;;
19329;SDS011;9799;48.214;16.388;2023-07-22T18:36:17;4.03;;;3.50;;
19329;SDS011;9799;48.214;16.388;2023-07-22T18:39:40;5.43;;;3.42;;
19329;SDS011;9799;48.214;16.388;2023-07-22T18:43:02;8.15;;;4.35;;
19329;SDS011;9799;48.214;16.388;2023-07-22T18:46:24;4.45;;;4.05;;
19329;SDS011;9799;48.214;16.388;2023-07-22T18:49:47;5.63;;;4.38;;
19329;SDS011;9799;48.214;16.388;2023-07-22T18:53:10;5.28;;;4.53;;
19329;SDS011;9799;48.214;16.388;2023-07-22T18:56:31;5.00;;;4.45;;
19329;SDS011;9799;48.214;16.388;2023-07-22T18:59:54;4.25;;;3.85;;
19329;SDS011;9799;48.214;16.388;2023-07-22T19:03:17;5.05;;;4.07;;
19329;SDS011;9799;48.214;16.388;2023-07-22T19:06:40;7.80;;;3.45;;
19329;SDS011;9799;48.214;16.388;2023-07-22T19:10:02;5.68;;;4.25;;
19329;SDS011;9799;48.214;16.388;2023-07-22T19:13:25;4.35;;;3.95;;
19329;SDS011;9799;48.214;16.388;2023-07-22T19:16:50;4.68;;;4.18;;
19329;SDS011;9799;48.214;16.388;2023-07-22T19:20:12;4.60;;;3.47;;
19329;SDS011;9799;48.214;16.388;2023-07-22T19:23:35;4.18;;;3.78;;
19329;SDS011;9799;48.214;16.388;2023-07-22T19:26:58;4.30;;;3.88;;
19329;SDS011;9799;48.214;16.388;2023-07-22T19:30:20;4.60;;;4.20;;
19329;SDS011;9799;48.214;16.388;2023-07-22T19:33:43;6.07;;;4.15;;
19329;SDS011;9799;48.214;16.388;2023-07-22T19:37:06;6.97;;;5.10;;
19329;SDS011;9799;48.214;16.388;2023-07-22T19:40:30;7.68;;;5.40;;
19329;SDS011;9799;48.214;16.388;2023-07-22T19:43:52;5.03;;;4.38;;
19329;SDS011;9799;48.214;16.388;2023-07-22T19:47:15;5.65;;;5.03;;
19329;SDS011;9799;48.214;16.388;2023-07-22T19:50:37;7.65;;;5.47;;
19329;SDS011;9799;48.214;16.388;2023-07-22T19:53:58;4.95;;;4.45;;
19329;SDS011;9799;48.214;16.388;2023-07-22T19:57:23;6.93;;;5.35;;
19329;SDS011;9799;48.214;16.388;2023-07-22T20:00:45;5.53;;;5.05;;
19329;SDS011;9799;48.214;16.388;2023-07-22T20:04:08;4.97;;;4.57;;
19329;SDS011;9799;48.214;16.388;2023-07-22T20:07:30;5.57;;;4.78;;
19329;SDS011;9799;48.214;16.388;2023-07-22T20:10:51;4.65;;;4.15;;
19329;SDS011;9799;48.214;16.388;2023-07-22T20:14:16;3.95;;;3.65;;
19329;SDS011;9799;48.214;16.388;2023-07-22T20:17:37;4.22;;;3.83;;
19329;SDS011;9799;48.214;16.388;2023-07-22T20:20:59;5.47;;;4.20;;